Latest Weather Observations for Port Lincoln Airport

IDS60801

Issued at 11:01 pm CST Tuesday 4 August 2015 (issued every 30 minutes, with the page automatically refreshed every 10 minutes)

About weather observations | Map of weather stations | Latest weather observations for SA | Other Formats
Station Details ID: 018192 Name: PORT LINCOLN AWS Lat: -34.60 Lon: 135.88 Height: 8.5 m
Data from the previous 72 hours. | See also: Recent months at Port Lincoln Airport
Date/Time
CST
Temp
°C
App
Temp
°C
Dew
Point
Rel
Hum
%
Delta-T
°C
Wind Press
QNH
hPa
Press
MSL
hPa
Rain
since 9 am
mm
Dir
 
Spd
km/h
Gust
km/h
Spd
kts
Gust
kts
04/11:00pm 11.1 7.5 10.0 93 0.6 WSW 19 26 10 14 1024.9 1024.9 0.6
04/10:38pm 10.7 7.5 9.8 94 0.5 WSW 17 22 9 12 1024.8 1024.8 0.6
04/10:30pm 11.0 6.9 10.2 95 0.4 WSW 22 35 12 19 1024.8 1024.8 0.6
04/10:00pm 11.0 7.5 10.2 95 0.4 WSW 19 24 10 13 1025.1 1025.1 0.4
04/09:56pm 11.1 7.6 10.3 95 0.4 WSW 19 24 10 13 1025.1 1025.1 0.2
04/09:43pm 11.1 7.0 10.2 94 0.5 W 22 30 12 16 1025.1 1025.1 0.2
04/09:30pm 10.9 7.2 10.0 94 0.5 W 20 26 11 14 1025.0 1025.0 0.2
04/09:28pm 10.9 7.2 10.0 94 0.5 W 20 26 11 14 1025.0 1025.0 0.2
04/09:00pm 10.3 6.6 9.4 94 0.4 WNW 19 24 10 13 1024.8 1024.8 0.2
04/08:30pm 10.3 6.6 9.4 94 0.4 WNW 19 22 10 12 1025.0 1025.0 0.2
04/08:00pm 10.6 6.7 9.5 93 0.6 WNW 20 30 11 16 1025.3 1025.3 0.2
04/07:30pm 10.4 7.1 9.5 94 0.4 WNW 17 22 9 12 1025.4 1025.4 0.2
04/07:00pm 10.8 7.5 9.7 93 0.6 W 17 24 9 13 1025.6 1025.6 0.0
04/06:30pm 10.3 7.2 8.9 91 0.7 WNW 15 20 8 11 1025.5 1025.5 0.0
04/06:00pm 10.7 8.0 9.0 89 0.8 WNW 13 17 7 9 1025.6 1025.6 0.0
04/05:30pm 11.1 7.9 8.5 84 1.3 WNW 15 20 8 11 1025.4 1025.4 0.0
04/05:00pm 11.3 7.7 8.2 81 1.5 WNW 17 22 9 12 1025.4 1025.4 0.0
04/04:30pm 12.7 8.9 9.0 78 1.8 W 19 26 10 14 1025.6 1025.6 0.0
04/04:00pm 12.9 8.8 8.6 75 2.1 W 20 30 11 16 1025.8 1025.8 0.0
04/03:30pm 13.6 8.5 7.8 68 2.8 W 24 32 13 17 1026.1 1026.1 0.0
04/03:00pm 13.3 7.4 7.5 68 2.8 WSW 28 35 15 19 1026.2 1026.2 0.0
04/02:30pm 14.5 9.1 7.8 64 3.3 W 26 33 14 18 1026.2 1026.2 0.0
04/02:00pm 14.3 9.6 7.8 65 3.2 WSW 22 30 12 16 1026.6 1026.6 0.0
04/01:30pm 12.8 7.8 7.9 72 2.4 W 24 33 13 18 1027.0 1027.0 0.0
04/01:00pm 12.9 8.8 7.8 71 2.5 SW 19 26 10 14 1027.4 1027.4 0.0
04/12:30pm 12.3 6.6 8.2 76 2.0 WSW 28 43 15 23 1028.0 1028.0 0.0
04/12:28pm 12.3 6.5 7.8 74 2.2 WSW 28 43 15 23 1027.9 1027.9 0.0
04/12:00pm 13.2 9.0 7.6 69 2.7 W 19 24 10 13 1028.2 1028.2 0.0
04/11:30am 12.8 8.4 7.5 70 2.6 WSW 20 26 11 14 1028.6 1028.6 0.0
04/11:00am 12.3 8.4 8.8 79 1.7 WNW 19 22 10 12 1028.8 1028.8 0.0
04/10:30am 12.3 8.8 8.6 78 1.8 W 17 20 9 11 1028.9 1028.9 0.0
04/10:00am 11.6 8.9 8.8 83 1.4 W 13 17 7 9 1028.8 1028.8 0.0
04/09:30am 11.2 8.0 8.4 83 1.4 WSW 15 22 8 12 1028.8 1028.8 0.0
04/09:00am 10.0 8.0 8.6 91 0.7 WSW 9 13 5 7 1028.7 1028.7 0.2
04/08:30am 9.2 8.5 8.6 96 0.3 WSW 2 9 1 5 1028.9 1028.9 0.2
04/08:00am 8.4 5.8 7.8 96 0.3 WNW 11 15 6 8 1028.8 1028.8 0.2
04/07:30am 7.0 3.7 6.6 97 0.2 WNW 13 17 7 9 1028.6 1028.6 0.2
04/07:00am 7.9 5.6 7.3 96 0.3 W 9 11 5 6 1028.6 1028.6 0.2
04/06:30am 7.6 5.8 7.0 96 0.3 W 6 9 3 5 1028.5 1028.5 0.2
04/06:00am 6.2 4.8 5.6 96 0.3 NNE 2 7 1 4 1028.1 1028.1 0.2
04/05:30am 6.9 4.0 6.3 96 0.3 WNW 11 15 6 8 1027.9 1027.9 0.2
04/05:00am 8.1 5.1 7.8 98 0.1 W 13 17 7 9 1028.0 1028.0 0.2
04/04:30am 5.9 2.4 5.3 96 0.3 WNW 13 15 7 8 1027.9 1027.9 0.0
04/04:00am 6.9 4.0 6.3 96 0.3 WNW 11 15 6 8 1028.1 1028.1 0.0
04/03:30am 7.7 3.8 7.3 97 0.2 WNW 17 22 9 12 1028.3 1028.3 0.0
04/03:00am 7.6 4.4 7.0 96 0.3 WNW 13 15 7 8 1028.4 1028.4 0.0
04/02:30am 7.9 4.8 7.3 96 0.3 WNW 13 17 7 9 1028.6 1028.6 0.0
04/02:00am 6.6 3.5 5.7 94 0.4 WNW 11 15 6 8 1028.7 1028.7 0.0
04/01:30am 7.9 4.8 7.3 96 0.3 W 13 17 7 9 1028.8 1028.8 0.0
04/01:00am 6.2 4.0 5.3 94 0.4 W 6 7 3 4 1028.8 1028.8 0.0
04/12:30am 7.4 4.1 6.3 93 0.5 W 13 15 7 8 1028.8 1028.8 0.0
04/12:00am 7.9 5.1 6.8 93 0.5 WSW 11 17 6 9 1029.0 1029.0 0.0
 
Date/Time
CST
Temp
°C
App
Temp
°C
Dew
Point
Rel
Hum
%
Delta-T
°C
Wind Press
QNH
hPa
Press
MSL
hPa
Rain
since 9 am
mm
Dir
 
Spd
km/h
Gust
km/h
Spd
kts
Gust
kts
03/11:30pm 8.8 4.5 7.9 94 0.4 W 20 26 11 14 1029.0 1029.0 0.0
03/11:00pm 7.8 4.2 6.9 94 0.4 W 15 19 8 10 1029.1 1029.1 0.0
03/10:30pm 8.6 4.8 7.5 93 0.5 WSW 17 22 9 12 1029.2 1029.2 0.0
03/10:00pm 7.0 4.7 5.9 93 0.5 SSW 7 11 4 6 1029.3 1029.3 0.0
03/09:30pm 7.8 4.6 6.7 93 0.5 W 13 17 7 9 1029.1 1029.1 0.0
03/09:00pm 7.2 5.0 6.1 93 0.5 WNW 7 9 4 5 1029.2 1029.2 0.0
03/08:30pm 8.5 6.2 7.6 94 0.4 SW 9 13 5 7 1029.2 1029.2 0.0
03/08:00pm 7.3 4.0 6.4 94 0.4 W 13 15 7 8 1029.1 1029.1 0.0
03/07:30pm 7.4 4.4 6.2 92 0.5 WSW 11 13 6 7 1028.9 1028.9 0.0
03/07:00pm 8.8 5.7 7.4 91 0.7 WSW 13 15 7 8 1028.8 1028.8 0.0
03/06:30pm 9.4 6.3 7.2 86 1.0 WSW 13 20 7 11 1028.6 1028.6 0.0
03/06:00pm 9.8 6.0 7.7 87 1.0 WSW 17 22 9 12 1028.4 1028.4 0.0
03/05:30pm 10.2 6.9 6.5 78 1.7 SW 13 17 7 9 1028.1 1028.1 0.0
03/05:00pm 11.2 7.6 6.9 75 2.0 SW 15 20 8 11 1028.0 1028.0 0.0
03/04:30pm 11.3 8.1 8.5 83 1.4 SW 15 20 8 11 1027.9 1027.9 0.0
03/04:00pm 10.8 6.8 9.1 89 0.8 SW 20 32 11 17 1027.9 1027.9 0.0
03/03:30pm 12.6 8.0 8.1 74 2.2 SSW 22 35 12 19 1027.6 1027.6 0.0
03/03:00pm 12.7 8.4 7.8 72 2.4 SW 20 28 11 15 1027.4 1027.4 0.0
03/02:30pm 14.4 9.9 8.4 67 3.0 SW 22 32 12 17 1027.0 1027.0 0.0
03/02:00pm 14.1 8.5 8.7 70 2.7 SSW 28 37 15 20 1027.0 1027.0 0.0
03/01:30pm 12.8 7.9 8.5 75 2.1 SSW 24 32 13 17 1027.2 1027.2 0.0
03/01:00pm 13.7 8.7 6.6 62 3.4 SW 22 32 12 17 1027.3 1027.3 0.0
03/12:30pm 14.1 8.1 7.2 63 3.3 SW 28 39 15 21 1027.5 1027.5 0.0
03/12:00pm 12.5 6.6 7.6 72 2.4 SSW 28 37 15 20 1027.8 1027.8 0.0
03/11:30am 13.4 8.0 7.8 69 2.7 SSW 26 32 14 17 1028.0 1028.0 0.0
03/11:00am 13.4 9.1 8.0 70 2.7 SSW 20 33 11 18 1028.0 1028.0 0.0
03/10:30am 12.6 7.7 8.5 76 2.0 SSW 24 32 13 17 1028.0 1028.0 0.0
03/10:00am 12.0 5.8 10.1 88 1.0 SSW 33 43 18 23 1027.8 1027.8 0.0
03/09:30am 12.0 8.2 9.2 83 1.4 SW 19 28 10 15 1027.4 1027.4 0.0
03/09:00am 11.0 8.0 9.3 89 0.8 SW 15 22 8 12 1027.4 1027.4 0.6
03/08:30am 10.4 6.5 9.5 94 0.4 SW 20 26 11 14 1027.1 1027.1 0.6
03/08:00am 9.7 7.4 8.9 95 0.4 WSW 11 15 6 8 1026.8 1026.8 0.6
03/07:30am 8.1 5.0 7.2 94 0.4 WSW 13 19 7 10 1026.4 1026.4 0.6
03/07:00am 8.6 5.5 7.4 92 0.6 WSW 13 15 7 8 1025.9 1025.9 0.6
03/06:30am 9.9 6.3 8.5 91 0.7 SW 17 26 9 14 1025.7 1025.7 0.4
03/06:00am 8.1 5.4 7.2 94 0.4 WSW 11 13 6 7 1025.4 1025.4 0.4
03/05:30am 7.9 5.1 6.8 93 0.5 W 11 13 6 7 1025.2 1025.2 0.4
03/05:00am 8.9 5.9 7.7 92 0.6 W 13 15 7 8 1024.9 1024.9 0.4
03/04:42am 9.7 6.1 8.3 91 0.7 WSW 17 20 9 11 1024.8 1024.8 0.4
03/04:31am 10.2 6.4 9.0 92 0.6 WSW 19 28 10 15 1024.7 1024.7 0.4
03/04:30am 10.2 6.4 9.0 92 0.6 WSW 19 28 10 15 1024.7 1024.7 0.4
03/04:04am 10.2 6.7 8.6 90 0.8 WSW 17 26 9 14 1024.6 1024.6 0.4
03/04:00am 10.4 6.0 8.8 90 0.8 SW 22 35 12 19 1024.6 1024.6 0.4
03/03:54am 10.8 5.7 9.2 90 0.8 SW 26 39 14 21 1024.7 1024.7 0.2
03/03:50am 10.9 6.9 9.0 88 0.9 WSW 20 39 11 21 1024.7 1024.7 0.2
03/03:30am 10.4 8.1 7.6 83 1.3 W 9 13 5 7 1024.6 1024.6 0.2
03/03:00am 11.0 7.4 8.2 83 1.4 WSW 17 22 9 12 1024.8 1024.8 0.2
03/02:30am 10.8 5.9 8.6 86 1.1 WSW 24 35 13 19 1024.9 1024.9 0.2
03/02:00am 10.9 7.5 9.0 88 0.9 WSW 17 24 9 13 1025.0 1025.0 0.2
03/01:30am 11.2 7.4 8.9 86 1.1 SW 19 26 10 14 1024.9 1024.9 0.2
03/01:00am 10.5 7.8 8.9 90 0.8 WSW 13 17 7 9 1024.7 1024.7 0.2
03/12:30am 10.9 6.8 8.7 86 1.1 WSW 20 32 11 17 1024.8 1024.8 0.2
03/12:00am 10.9 5.7 8.8 87 1.0 W 26 39 14 21 1024.7 1024.7 0.2
 
Date/Time
CST
Temp
°C
App
Temp
°C
Dew
Point
Rel
Hum
%
Delta-T
°C
Wind Press
QNH
hPa
Press
MSL
hPa
Rain
since 9 am
mm
Dir
 
Spd
km/h
Gust
km/h
Spd
kts
Gust
kts
02/11:58pm 10.9 6.1 8.8 87 1.0 W 24 37 13 20 1024.7 1024.7 0.2
02/11:30pm 9.7 7.2 8.0 89 0.8 W 11 17 6 9 1024.6 1024.6 0.2
02/11:00pm 11.1 7.4 9.4 89 0.9 WSW 19 24 10 13 1024.6 1024.6 0.2
02/10:30pm 11.2 7.5 9.5 89 0.8 W 19 26 10 14 1024.8 1024.8 0.2
02/10:00pm 10.8 6.5 9.2 90 0.8 W 22 30 12 16 1024.8 1024.8 0.2
02/09:59pm 10.8 6.5 9.2 90 0.8 W 22 30 12 16 1024.8 1024.8 0.2
02/09:46pm 11.1 6.5 9.5 90 0.8 W 24 39 13 21 1024.6 1024.6 0.2
02/09:30pm 10.6 7.5 8.9 89 0.8 W 15 22 8 12 1024.6 1024.6 0.2
02/09:00pm 11.0 7.0 9.1 88 0.9 W 20 35 11 19 1024.5 1024.5 0.2
02/08:30pm 10.2 7.4 8.5 89 0.8 W 13 19 7 10 1024.0 1024.0 0.2
02/08:00pm 9.9 7.8 8.2 89 0.8 W 9 13 5 7 1024.1 1024.1 0.2
02/07:30pm 10.5 7.4 8.9 90 0.8 WNW 15 20 8 11 1023.8 1023.8 0.2
02/07:00pm 9.9 7.4 8.2 89 0.8 WNW 11 13 6 7 1023.6 1023.6 0.2
02/06:30pm 10.8 7.3 8.6 86 1.1 W 17 26 9 14 1023.3 1023.3 0.2
02/06:00pm 11.1 8.4 9.0 87 1.0 W 13 17 7 9 1023.1 1023.1 0.2
02/05:30pm 11.5 8.5 9.1 85 1.2 W 15 22 8 12 1022.9 1022.9 0.2
02/05:00pm 12.3 7.6 9.1 81 1.6 W 24 35 13 19 1022.5 1022.5 0.2
02/04:30pm 13.6 8.4 8.7 72 2.5 WSW 26 35 14 19 1022.2 1022.2 0.2
02/04:00pm 13.7 7.9 8.1 69 2.8 W 28 43 15 23 1022.0 1022.0 0.2
02/03:30pm 15.1 10.2 8.3 64 3.4 SW 24 37 13 20 1021.9 1021.9 0.2
02/03:00pm 14.1 8.0 8.3 68 2.9 WSW 30 43 16 23 1021.9 1021.9 0.2
02/02:30pm 14.6 9.5 10.6 77 2.1 W 28 44 15 24 1021.7 1021.7 0.2
02/02:00pm 12.7 6.7 10.1 84 1.3 WSW 32 46 17 25 1021.5 1021.5 0.2
02/01:44pm 13.7 8.8 11.2 85 1.3 W 28 39 15 21 1021.7 1021.7 0.2
02/01:30pm 12.2 6.4 10.8 91 0.7 WSW 32 43 17 23 1021.8 1021.8 0.2
02/01:27pm 12.0 5.9 9.9 87 1.1 WSW 32 43 17 23 1021.8 1021.8 0.0
02/01:00pm 12.9 6.8 9.7 81 1.6 WSW 32 44 17 24 1021.8 1021.8 0.0
02/12:30pm 15.2 8.3 8.7 65 3.3 W 35 43 19 23 1021.7 1021.7 0.0
02/12:00pm 14.2 7.8 9.2 72 2.5 W 33 44 18 24 1022.1 1022.1 0.0
02/11:30am 14.0 8.5 10.6 80 1.8 W 30 44 16 24 1022.1 1022.1 0.0
02/11:00am 13.3 7.5 8.0 70 2.6 WSW 28 43 15 23 1022.2 1022.2 0.0
02/10:30am 13.0 7.8 8.9 76 2.1 W 26 35 14 19 1022.2 1022.2 0.0
02/10:00am 13.0 8.8 8.3 73 2.3 WSW 20 30 11 16 1022.1 1022.1 0.0
02/09:30am 12.7 8.3 9.0 78 1.9 WSW 22 30 12 16 1021.9 1021.9 0.0
02/09:00am 11.7 7.9 9.1 84 1.3 W 19 24 10 13 1021.7 1021.7 2.6
02/08:30am 10.0 6.3 8.1 88 0.9 W 17 20 9 11 1021.6 1021.6 2.6
02/08:00am 9.0 5.1 7.0 87 0.9 WSW 17 20 9 11 1021.3 1021.3 2.6
02/07:30am 7.9 3.4 6.0 88 0.9 W 19 20 10 11 1020.9 1020.9 2.6
02/07:00am 7.2 3.3 5.3 88 0.8 W 15 19 8 10 1020.7 1020.7 2.6
02/06:30am 7.9 3.7 5.7 86 1.0 W 17 20 9 11 1020.6 1020.6 2.6
02/06:00am 6.9 3.3 5.1 88 0.8 W 13 15 7 8 1020.4 1020.4 2.6
02/05:30am 7.5 3.5 5.0 84 1.1 W 15 19 8 10 1020.0 1020.0 2.6
02/05:00am 8.1 4.3 5.7 85 1.1 WSW 15 19 8 10 1020.0 1020.0 2.6
02/04:30am 7.8 4.5 6.3 90 0.7 WNW 13 17 7 9 1019.9 1019.9 2.6
02/04:00am 6.9 3.3 5.2 89 0.7 W 13 15 7 8 1020.0 1020.0 2.6
02/03:30am 8.9 4.3 6.7 86 1.0 SW 20 30 11 16 1020.2 1020.2 2.6
02/03:00am 9.1 5.3 5.7 79 1.5 WSW 15 19 8 10 1020.1 1020.1 2.6
02/02:30am 8.9 4.8 6.0 82 1.3 W 17 20 9 11 1020.1 1020.1 2.6
02/02:00am 9.1 5.9 6.9 86 1.0 W 13 15 7 8 1020.1 1020.1 2.6
02/01:30am 9.1 6.0 7.4 89 0.8 WNW 13 17 7 9 1020.0 1020.0 2.6
02/01:00am 9.5 6.5 7.8 89 0.8 W 13 17 7 9 1020.1 1020.1 2.6
02/12:30am 9.1 6.1 7.9 92 0.6 WNW 13 17 7 9 1020.2 1020.2 2.6
02/12:00am 9.1 5.8 7.9 92 0.6 WNW 15 17 8 9 1020.1 1020.1 2.6
 
Date/Time
CST
Temp
°C
App
Temp
°C
Dew
Point
Rel
Hum
%
Delta-T
°C
Wind Press
QNH
hPa
Press
MSL
hPa
Rain
since 9 am
mm
Dir
 
Spd
km/h
Gust
km/h
Spd
kts
Gust
kts
01/11:30pm 9.5 6.2 7.9 90 0.8 W 15 17 8 9 1020.1 1020.1 2.6

Other Formats:

Comma delimited format used in spreadsheet applications
http://www.bom.gov.au/fwo/IDS60801/IDS60801.95661.axf

JavaScript Object Notation format (JSON) in row-major order
http://www.bom.gov.au/fwo/IDS60801/IDS60801.95661.json